sensor_id;sensor_type;location;lat;lon;timestamp;temperature;humidity
4651;DHT22;2338;49.602;8.722;2022-12-16T00:00:40;0.00;99.90
4651;DHT22;2338;49.602;8.722;2022-12-16T00:03:25;0.00;99.90
4651;DHT22;2338;49.602;8.722;2022-12-16T00:06:12;-0.10;99.90
4651;DHT22;2338;49.602;8.722;2022-12-16T00:08:58;-0.10;99.90
4651;DHT22;2338;49.602;8.722;2022-12-16T00:11:44;-0.10;99.90
4651;DHT22;2338;49.602;8.722;2022-12-16T00:14:30;-0.10;99.90
4651;DHT22;2338;49.602;8.722;2022-12-16T00:17:16;-0.20;99.90
4651;DHT22;2338;49.602;8.722;2022-12-16T00:20:02;-0.20;99.90
4651;DHT22;2338;49.602;8.722;2022-12-16T00:22:50;-0.10;99.90
4651;DHT22;2338;49.602;8.722;2022-12-16T00:25:36;-0.10;99.90
4651;DHT22;2338;49.602;8.722;2022-12-16T00:28:22;0.00;99.90
4651;DHT22;2338;49.602;8.722;2022-12-16T00:31:07;0.00;99.90
4651;DHT22;2338;49.602;8.722;2022-12-16T00:33:55;-0.10;99.90
4651;DHT22;2338;49.602;8.722;2022-12-16T00:36:40;-0.20;99.90
4651;DHT22;2338;49.602;8.722;2022-12-16T00:39:27;-0.20;99.90
4651;DHT22;2338;49.602;8.722;2022-12-16T00:42:13;-0.30;99.90
4651;DHT22;2338;49.602;8.722;2022-12-16T00:44:59;-0.30;99.90
4651;DHT22;2338;49.602;8.722;2022-12-16T00:47:44;-0.20;99.90
4651;DHT22;2338;49.602;8.722;2022-12-16T00:50:30;-0.20;99.90
4651;DHT22;2338;49.602;8.722;2022-12-16T00:53:16;-0.20;99.90
4651;DHT22;2338;49.602;8.722;2022-12-16T00:56:04;-0.30;99.90
4651;DHT22;2338;49.602;8.722;2022-12-16T00:58:50;-0.30;99.90
4651;DHT22;2338;49.602;8.722;2022-12-16T01:01:36;-0.30;99.90
4651;DHT22;2338;49.602;8.722;2022-12-16T01:04:21;-0.40;99.90
4651;DHT22;2338;49.602;8.722;2022-12-16T01:07:10;-0.40;99.90
4651;DHT22;2338;49.602;8.722;2022-12-16T01:09:55;-0.50;99.90
4651;DHT22;2338;49.602;8.722;2022-12-16T01:12:42;-0.50;99.90
4651;DHT22;2338;49.602;8.722;2022-12-16T01:15:27;-0.60;99.90
4651;DHT22;2338;49.602;8.722;2022-12-16T01:18:13;-0.60;99.90
4651;DHT22;2338;49.602;8.722;2022-12-16T01:21:02;-0.70;99.90
4651;DHT22;2338;49.602;8.722;2022-12-16T01:23:47;-0.80;99.90
4651;DHT22;2338;49.602;8.722;2022-12-16T01:26:33;-0.80;99.90
4651;DHT22;2338;49.602;8.722;2022-12-16T01:29:20;-0.90;99.90
4651;DHT22;2338;49.602;8.722;2022-12-16T01:32:07;-0.90;99.90
4651;DHT22;2338;49.602;8.722;2022-12-16T01:34:53;-1.00;99.90
4651;DHT22;2338;49.602;8.722;2022-12-16T01:37:39;-1.10;99.90
4651;DHT22;2338;49.602;8.722;2022-12-16T01:40:25;-1.10;99.90
4651;DHT22;2338;49.602;8.722;2022-12-16T01:43:11;-1.10;99.90
4651;DHT22;2338;49.602;8.722;2022-12-16T01:46:03;-1.10;99.90
4651;DHT22;2338;49.602;8.722;2022-12-16T01:48:51;-1.10;99.90
4651;DHT22;2338;49.602;8.722;2022-12-16T01:51:41;-1.10;99.90
4651;DHT22;2338;49.602;8.722;2022-12-16T01:54:31;-1.00;99.90
4651;DHT22;2338;49.602;8.722;2022-12-16T01:57:22;-1.10;99.90
4651;DHT22;2338;49.602;8.722;2022-12-16T02:00:10;-1.10;99.90
4651;DHT22;2338;49.602;8.722;2022-12-16T02:02:58;-1.10;99.90
4651;DHT22;2338;49.602;8.722;2022-12-16T02:05:45;-1.20;99.90
4651;DHT22;2338;49.602;8.722;2022-12-16T02:08:31;-1.20;99.90
4651;DHT22;2338;49.602;8.722;2022-12-16T02:11:27;-1.20;99.90
4651;DHT22;2338;49.602;8.722;2022-12-16T02:14:42;-1.20;99.90
4651;DHT22;2338;49.602;8.722;2022-12-16T02:17:37;-1.20;99.90
4651;DHT22;2338;49.602;8.722;2022-12-16T02:20:55;-1.30;99.90
4651;DHT22;2338;49.602;8.722;2022-12-16T02:30:55;-1.40;99.90
4651;DHT22;2338;49.602;8.722;2022-12-16T02:33:51;-1.50;99.90
4651;DHT22;2338;49.602;8.722;2022-12-16T02:36:54;-1.50;99.90
4651;DHT22;2338;49.602;8.722;2022-12-16T02:39:47;-1.40;99.90
4651;DHT22;2338;49.602;8.722;2022-12-16T02:42:36;-1.40;99.90
4651;DHT22;2338;49.602;8.722;2022-12-16T02:45:27;-1.50;99.90
4651;DHT22;2338;49.602;8.722;2022-12-16T02:48:15;-1.50;99.90
4651;DHT22;2338;49.602;8.722;2022-12-16T02:51:01;-1.60;99.90
4651;DHT22;2338;49.602;8.722;2022-12-16T02:53:48;-1.60;99.90
4651;DHT22;2338;49.602;8.722;2022-12-16T02:56:46;-1.60;99.90
4651;DHT22;2338;49.602;8.722;2022-12-16T02:59:40;-1.60;99.90
4651;DHT22;2338;49.602;8.722;2022-12-16T03:02:34;-1.60;99.90
4651;DHT22;2338;49.602;8.722;2022-12-16T03:05:25;-1.60;99.90
4651;DHT22;2338;49.602;8.722;2022-12-16T03:08:14;-1.60;99.90
4651;DHT22;2338;49.602;8.722;2022-12-16T03:11:03;-1.60;99.90
4651;DHT22;2338;49.602;8.722;2022-12-16T03:13:52;-1.70;99.90
4651;DHT22;2338;49.602;8.722;2022-12-16T03:16:39;-1.80;99.90
4651;DHT22;2338;49.602;8.722;2022-12-16T03:19:26;-1.80;99.90
4651;DHT22;2338;49.602;8.722;2022-12-16T03:22:16;-1.80;99.90
4651;DHT22;2338;49.602;8.722;2022-12-16T03:25:03;-1.80;99.90
4651;DHT22;2338;49.602;8.722;2022-12-16T03:27:56;-1.80;99.90
4651;DHT22;2338;49.602;8.722;2022-12-16T03:30:48;-1.80;99.90
4651;DHT22;2338;49.602;8.722;2022-12-16T03:33:37;-1.80;99.90
4651;DHT22;2338;49.602;8.722;2022-12-16T03:36:25;-1.90;99.90
4651;DHT22;2338;49.602;8.722;2022-12-16T03:39:14;-1.90;99.90
4651;DHT22;2338;49.602;8.722;2022-12-16T03:42:00;-2.00;99.90
4651;DHT22;2338;49.602;8.722;2022-12-16T03:44:47;-2.00;99.90
4651;DHT22;2338;49.602;8.722;2022-12-16T03:47:33;-1.90;99.90
4651;DHT22;2338;49.602;8.722;2022-12-16T03:50:22;-2.00;99.90
4651;DHT22;2338;49.602;8.722;2022-12-16T03:53:09;-2.00;99.90
4651;DHT22;2338;49.602;8.722;2022-12-16T03:55:56;-2.10;99.90
4651;DHT22;2338;49.602;8.722;2022-12-16T03:58:42;-2.20;99.90
4651;DHT22;2338;49.602;8.722;2022-12-16T04:01:30;-2.20;99.90
4651;DHT22;2338;49.602;8.722;2022-12-16T04:04:16;-2.30;99.90
4651;DHT22;2338;49.602;8.722;2022-12-16T04:07:01;-2.30;99.90
4651;DHT22;2338;49.602;8.722;2022-12-16T04:10:06;-2.40;99.90
4651;DHT22;2338;49.602;8.722;2022-12-16T04:12:53;-2.60;99.90
4651;DHT22;2338;49.602;8.722;2022-12-16T04:15:56;-2.80;99.90
4651;DHT22;2338;49.602;8.722;2022-12-16T04:18:59;-2.70;99.90
4651;DHT22;2338;49.602;8.722;2022-12-16T04:22:03;-3.00;99.90
4651;DHT22;2338;49.602;8.722;2022-12-16T04:25:09;-3.10;99.90
4651;DHT22;2338;49.602;8.722;2022-12-16T04:27:58;-3.10;99.90
4651;DHT22;2338;49.602;8.722;2022-12-16T04:30:43;-3.20;99.90
4651;DHT22;2338;49.602;8.722;2022-12-16T04:33:29;-3.20;99.90
4651;DHT22;2338;49.602;8.722;2022-12-16T04:36:40;-3.20;99.90
4651;DHT22;2338;49.602;8.722;2022-12-16T04:39:43;-3.30;99.90
4651;DHT22;2338;49.602;8.722;2022-12-16T04:42:47;-3.40;99.90
4651;DHT22;2338;49.602;8.722;2022-12-16T04:45:51;-3.30;99.90
4651;DHT22;2338;49.602;8.722;2022-12-16T04:48:55;-3.20;99.90
4651;DHT22;2338;49.602;8.722;2022-12-16T04:51:58;-3.40;99.90
4651;DHT22;2338;49.602;8.722;2022-12-16T04:55:01;-3.30;99.90
4651;DHT22;2338;49.602;8.722;2022-12-16T04:58:05;-3.50;99.90
4651;DHT22;2338;49.602;8.722;2022-12-16T05:01:10;-3.60;99.90
4651;DHT22;2338;49.602;8.722;2022-12-16T05:04:13;-3.60;99.90
4651;DHT22;2338;49.602;8.722;2022-12-16T05:07:16;-3.40;99.90
4651;DHT22;2338;49.602;8.722;2022-12-16T05:10:19;-3.20;99.90
4651;DHT22;2338;49.602;8.722;2022-12-16T05:13:22;-3.20;99.90
4651;DHT22;2338;49.602;8.722;2022-12-16T05:16:27;-3.10;99.90
4651;DHT22;2338;49.602;8.722;2022-12-16T05:19:30;-3.20;99.90
4651;DHT22;2338;49.602;8.722;2022-12-16T05:22:33;-3.40;99.90
4651;DHT22;2338;49.602;8.722;2022-12-16T05:25:36;-3.50;99.90
4651;DHT22;2338;49.602;8.722;2022-12-16T05:28:40;-3.60;99.90
4651;DHT22;2338;49.602;8.722;2022-12-16T05:31:49;-3.50;99.90
4651;DHT22;2338;49.602;8.722;2022-12-16T05:34:53;-3.60;99.90
4651;DHT22;2338;49.602;8.722;2022-12-16T05:37:56;-3.60;99.90
4651;DHT22;2338;49.602;8.722;2022-12-16T05:40:59;-3.80;99.90
4651;DHT22;2338;49.602;8.722;2022-12-16T05:44:02;-4.00;99.90
4651;DHT22;2338;49.602;8.722;2022-12-16T05:47:08;-3.90;99.90
4651;DHT22;2338;49.602;8.722;2022-12-16T05:50:12;-4.20;99.90
4651;DHT22;2338;49.602;8.722;2022-12-16T05:53:15;-4.20;99.90
4651;DHT22;2338;49.602;8.722;2022-12-16T05:56:18;-4.30;99.90
4651;DHT22;2338;49.602;8.722;2022-12-16T05:59:21;-4.30;99.90
4651;DHT22;2338;49.602;8.722;2022-12-16T06:02:26;-4.30;99.90
4651;DHT22;2338;49.602;8.722;2022-12-16T06:05:29;-4.30;99.90
4651;DHT22;2338;49.602;8.722;2022-12-16T06:08:32;-4.30;99.90
4651;DHT22;2338;49.602;8.722;2022-12-16T06:11:36;-4.30;99.90
4651;DHT22;2338;49.602;8.722;2022-12-16T06:14:39;-4.30;99.90
4651;DHT22;2338;49.602;8.722;2022-12-16T06:17:47;-4.30;99.90
4651;DHT22;2338;49.602;8.722;2022-12-16T06:20:50;-4.20;99.90
4651;DHT22;2338;49.602;8.722;2022-12-16T06:23:53;-4.20;99.90
4651;DHT22;2338;49.602;8.722;2022-12-16T06:26:57;-4.30;99.90
4651;DHT22;2338;49.602;8.722;2022-12-16T06:30:00;-4.30;99.90
4651;DHT22;2338;49.602;8.722;2022-12-16T06:33:04;-4.40;99.90
4651;DHT22;2338;49.602;8.722;2022-12-16T06:36:08;-4.40;99.90
4651;DHT22;2338;49.602;8.722;2022-12-16T06:39:11;-4.70;99.90
4651;DHT22;2338;49.602;8.722;2022-12-16T06:42:14;-4.60;99.90
4651;DHT22;2338;49.602;8.722;2022-12-16T06:45:17;-4.50;99.90
4651;DHT22;2338;49.602;8.722;2022-12-16T06:48:18;-4.50;99.90
4651;DHT22;2338;49.602;8.722;2022-12-16T06:51:29;-4.30;99.90
4651;DHT22;2338;49.602;8.722;2022-12-16T06:54:32;-4.20;99.90
4651;DHT22;2338;49.602;8.722;2022-12-16T06:57:36;-4.30;99.90
4651;DHT22;2338;49.602;8.722;2022-12-16T07:00:39;-4.30;99.90
4651;DHT22;2338;49.602;8.722;2022-12-16T07:03:45;-4.30;99.90
4651;DHT22;2338;49.602;8.722;2022-12-16T07:06:49;-4.30;99.90
4651;DHT22;2338;49.602;8.722;2022-12-16T07:09:52;-4.30;99.90
4651;DHT22;2338;49.602;8.722;2022-12-16T07:12:56;-4.40;99.90
4651;DHT22;2338;49.602;8.722;2022-12-16T07:16:00;-4.30;99.90
4651;DHT22;2338;49.602;8.722;2022-12-16T07:19:04;-4.30;99.90
4651;DHT22;2338;49.602;8.722;2022-12-16T07:22:21;-4.30;99.90
4651;DHT22;2338;49.602;8.722;2022-12-16T07:25:24;-4.50;99.90
4651;DHT22;2338;49.602;8.722;2022-12-16T07:28:27;-4.70;99.90
4651;DHT22;2338;49.602;8.722;2022-12-16T07:31:30;-4.70;99.90
4651;DHT22;2338;49.602;8.722;2022-12-16T07:34:34;-4.80;99.90
4651;DHT22;2338;49.602;8.722;2022-12-16T07:37:38;-4.80;99.90
4651;DHT22;2338;49.602;8.722;2022-12-16T07:40:43;-4.90;99.90
4651;DHT22;2338;49.602;8.722;2022-12-16T07:43:46;-4.90;99.90
4651;DHT22;2338;49.602;8.722;2022-12-16T07:46:54;-4.80;99.90
4651;DHT22;2338;49.602;8.722;2022-12-16T07:49:59;-4.70;99.90
4651;DHT22;2338;49.602;8.722;2022-12-16T07:53:02;-4.60;99.90
4651;DHT22;2338;49.602;8.722;2022-12-16T07:56:20;-4.70;99.90
4651;DHT22;2338;49.602;8.722;2022-12-16T07:59:23;-4.70;99.90
4651;DHT22;2338;49.602;8.722;2022-12-16T08:02:27;-4.90;99.90
4651;DHT22;2338;49.602;8.722;2022-12-16T08:05:31;-5.10;99.90
4651;DHT22;2338;49.602;8.722;2022-12-16T08:08:34;-5.10;99.90
4651;DHT22;2338;49.602;8.722;2022-12-16T08:11:37;-4.70;99.90
4651;DHT22;2338;49.602;8.722;2022-12-16T08:14:41;-4.60;99.90
4651;DHT22;2338;49.602;8.722;2022-12-16T08:17:47;-4.50;99.90
4651;DHT22;2338;49.602;8.722;2022-12-16T08:20:52;-4.60;99.90
4651;DHT22;2338;49.602;8.722;2022-12-16T08:23:55;-4.50;99.90
4651;DHT22;2338;49.602;8.722;2022-12-16T08:26:58;-4.50;99.90
4651;DHT22;2338;49.602;8.722;2022-12-16T08:30:02;-4.60;99.90
4651;DHT22;2338;49.602;8.722;2022-12-16T08:33:05;-4.50;99.90
4651;DHT22;2338;49.602;8.722;2022-12-16T08:36:10;-4.40;99.90
4651;DHT22;2338;49.602;8.722;2022-12-16T08:39:13;-4.50;99.90
4651;DHT22;2338;49.602;8.722;2022-12-16T08:42:16;-4.50;99.90
4651;DHT22;2338;49.602;8.722;2022-12-16T08:45:19;-4.40;99.90
4651;DHT22;2338;49.602;8.722;2022-12-16T08:48:23;-4.20;99.90
4651;DHT22;2338;49.602;8.722;2022-12-16T08:51:28;-4.30;99.90
4651;DHT22;2338;49.602;8.722;2022-12-16T08:54:31;-4.30;99.90
4651;DHT22;2338;49.602;8.722;2022-12-16T08:57:42;-4.40;99.90
4651;DHT22;2338;49.602;8.722;2022-12-16T09:00:45;-4.40;99.90
4651;DHT22;2338;49.602;8.722;2022-12-16T09:03:48;-4.30;99.90
4651;DHT22;2338;49.602;8.722;2022-12-16T09:06:53;-4.20;99.90
4651;DHT22;2338;49.602;8.722;2022-12-16T09:09:56;-4.10;99.90
4651;DHT22;2338;49.602;8.722;2022-12-16T09:13:05;-4.00;99.90
4651;DHT22;2338;49.602;8.722;2022-12-16T09:16:09;-3.90;99.90
4651;DHT22;2338;49.602;8.722;2022-12-16T09:19:12;-3.90;99.90
4651;DHT22;2338;49.602;8.722;2022-12-16T09:22:16;-4.00;99.90
4651;DHT22;2338;49.602;8.722;2022-12-16T09:25:20;-3.90;99.90
4651;DHT22;2338;49.602;8.722;2022-12-16T09:28:23;-3.80;99.90
4651;DHT22;2338;49.602;8.722;2022-12-16T09:31:26;-3.70;99.90
4651;DHT22;2338;49.602;8.722;2022-12-16T09:34:29;-3.50;99.90
4651;DHT22;2338;49.602;8.722;2022-12-16T09:37:34;-3.50;99.90
4651;DHT22;2338;49.602;8.722;2022-12-16T09:40:37;-3.40;99.90
4651;DHT22;2338;49.602;8.722;2022-12-16T09:43:53;-3.30;99.90
4651;DHT22;2338;49.602;8.722;2022-12-16T09:47:04;-3.20;99.90
4651;DHT22;2338;49.602;8.722;2022-12-16T09:50:18;-3.10;99.90
4651;DHT22;2338;49.602;8.722;2022-12-16T09:53:25;-3.00;99.90
4651;DHT22;2338;49.602;8.722;2022-12-16T09:56:30;-2.90;99.90
4651;DHT22;2338;49.602;8.722;2022-12-16T09:59:37;-2.90;99.90
4651;DHT22;2338;49.602;8.722;2022-12-16T10:02:43;-2.90;99.90
4651;DHT22;2338;49.602;8.722;2022-12-16T10:05:56;-2.70;99.90
4651;DHT22;2338;49.602;8.722;2022-12-16T10:09:09;-2.60;99.90
4651;DHT22;2338;49.602;8.722;2022-12-16T10:12:25;-2.30;99.90
4651;DHT22;2338;49.602;8.722;2022-12-16T10:15:35;-2.10;99.90
4651;DHT22;2338;49.602;8.722;2022-12-16T10:18:45;-2.00;99.90
4651;DHT22;2338;49.602;8.722;2022-12-16T10:21:55;-1.80;99.90
4651;DHT22;2338;49.602;8.722;2022-12-16T10:25:07;-1.50;99.90
4651;DHT22;2338;49.602;8.722;2022-12-16T10:28:17;-1.10;99.90
4651;DHT22;2338;49.602;8.722;2022-12-16T10:31:20;-0.50;99.90
4651;DHT22;2338;49.602;8.722;2022-12-16T10:34:26;0.00;99.90
4651;DHT22;2338;49.602;8.722;2022-12-16T10:37:33;0.60;99.90
4651;DHT22;2338;49.602;8.722;2022-12-16T10:40:38;1.10;99.90
4651;DHT22;2338;49.602;8.722;2022-12-16T10:43:43;1.40;99.90
4651;DHT22;2338;49.602;8.722;2022-12-16T10:46:49;2.00;99.90
4651;DHT22;2338;49.602;8.722;2022-12-16T10:49:55;2.40;99.90
4651;DHT22;2338;49.602;8.722;2022-12-16T10:53:00;2.70;96.00
4651;DHT22;2338;49.602;8.722;2022-12-16T10:56:28;2.80;92.80
4651;DHT22;2338;49.602;8.722;2022-12-16T10:59:38;2.90;90.20
4651;DHT22;2338;49.602;8.722;2022-12-16T11:02:42;2.90;88.40
4651;DHT22;2338;49.602;8.722;2022-12-16T11:06:00;2.80;89.70
4651;DHT22;2338;49.602;8.722;2022-12-16T11:09:21;2.80;88.60
4651;DHT22;2338;49.602;8.722;2022-12-16T11:12:29;2.40;91.00
4651;DHT22;2338;49.602;8.722;2022-12-16T11:15:32;2.20;91.60
4651;DHT22;2338;49.602;8.722;2022-12-16T11:18:48;2.00;92.40
4651;DHT22;2338;49.602;8.722;2022-12-16T11:22:05;1.40;95.30
4651;DHT22;2338;49.602;8.722;2022-12-16T11:25:14;1.10;99.00
4651;DHT22;2338;49.602;8.722;2022-12-16T11:28:18;0.90;99.90
4651;DHT22;2338;49.602;8.722;2022-12-16T11:31:22;0.90;99.90
4651;DHT22;2338;49.602;8.722;2022-12-16T11:34:36;0.70;99.90
4651;DHT22;2338;49.602;8.722;2022-12-16T11:37:41;0.50;99.90
4651;DHT22;2338;49.602;8.722;2022-12-16T11:40:45;0.30;99.90
4651;DHT22;2338;49.602;8.722;2022-12-16T11:43:52;0.20;99.90
4651;DHT22;2338;49.602;8.722;2022-12-16T11:46:56;0.20;99.90
4651;DHT22;2338;49.602;8.722;2022-12-16T11:49:59;0.00;99.90
4651;DHT22;2338;49.602;8.722;2022-12-16T11:53:05;-0.10;99.90
4651;DHT22;2338;49.602;8.722;2022-12-16T11:56:19;0.00;99.90
4651;DHT22;2338;49.602;8.722;2022-12-16T11:59:29;0.00;99.90
4651;DHT22;2338;49.602;8.722;2022-12-16T12:02:37;0.10;99.90
4651;DHT22;2338;49.602;8.722;2022-12-16T12:05:47;0.20;99.90
4651;DHT22;2338;49.602;8.722;2022-12-16T12:08:59;0.20;99.90
4651;DHT22;2338;49.602;8.722;2022-12-16T12:12:13;0.20;99.90
4651;DHT22;2338;49.602;8.722;2022-12-16T12:15:26;0.20;99.90
4651;DHT22;2338;49.602;8.722;2022-12-16T12:18:48;0.30;99.90
4651;DHT22;2338;49.602;8.722;2022-12-16T12:22:00;0.40;99.90
4651;DHT22;2338;49.602;8.722;2022-12-16T12:25:07;0.40;99.90
4651;DHT22;2338;49.602;8.722;2022-12-16T12:28:22;0.60;99.90
4651;DHT22;2338;49.602;8.722;2022-12-16T12:31:34;1.10;99.90
4651;DHT22;2338;49.602;8.722;2022-12-16T12:34:45;1.80;99.90
4651;DHT22;2338;49.602;8.722;2022-12-16T12:37:55;2.50;98.50
4651;DHT22;2338;49.602;8.722;2022-12-16T12:41:05;3.20;90.50
4651;DHT22;2338;49.602;8.722;2022-12-16T12:44:19;3.70;81.70
4651;DHT22;2338;49.602;8.722;2022-12-16T12:47:26;4.70;70.00
4651;DHT22;2338;49.602;8.722;2022-12-16T12:50:35;5.80;54.40
4651;DHT22;2338;49.602;8.722;2022-12-16T12:53:49;6.80;47.30
4651;DHT22;2338;49.602;8.722;2022-12-16T12:56:53;8.40;35.70
4651;DHT22;2338;49.602;8.722;2022-12-16T13:00:01;9.90;30.00
4651;DHT22;2338;49.602;8.722;2022-12-16T13:03:14;11.10;24.90
4651;DHT22;2338;49.602;8.722;2022-12-16T13:06:20;11.70;23.20
4651;DHT22;2338;49.602;8.722;2022-12-16T13:09:28;11.20;23.40
4651;DHT22;2338;49.602;8.722;2022-12-16T13:12:33;9.40;26.20
4651;DHT22;2338;49.602;8.722;2022-12-16T13:15:37;7.60;28.30
4651;DHT22;2338;49.602;8.722;2022-12-16T13:18:42;5.80;34.20
4651;DHT22;2338;49.602;8.722;2022-12-16T13:21:46;4.60;41.90
4651;DHT22;2338;49.602;8.722;2022-12-16T13:24:50;3.40;58.50
4651;DHT22;2338;49.602;8.722;2022-12-16T13:27:54;2.70;68.20
4651;DHT22;2338;49.602;8.722;2022-12-16T13:31:02;2.30;75.50
4651;DHT22;2338;49.602;8.722;2022-12-16T13:34:20;2.00;80.30
4651;DHT22;2338;49.602;8.722;2022-12-16T13:37:26;1.80;85.80
4651;DHT22;2338;49.602;8.722;2022-12-16T13:40:47;1.50;90.80
4651;DHT22;2338;49.602;8.722;2022-12-16T13:43:52;1.40;93.40
4651;DHT22;2338;49.602;8.722;2022-12-16T13:46:56;1.20;95.80
4651;DHT22;2338;49.602;8.722;2022-12-16T13:50:38;1.00;98.00
4651;DHT22;2338;49.602;8.722;2022-12-16T13:53:44;0.90;99.90
4651;DHT22;2338;49.602;8.722;2022-12-16T13:56:49;0.80;99.90
4651;DHT22;2338;49.602;8.722;2022-12-16T13:59:53;0.80;99.90
4651;DHT22;2338;49.602;8.722;2022-12-16T14:02:56;0.80;99.90
4651;DHT22;2338;49.602;8.722;2022-12-16T14:06:03;0.80;99.90
4651;DHT22;2338;49.602;8.722;2022-12-16T14:09:28;0.80;99.90
4651;DHT22;2338;49.602;8.722;2022-12-16T14:12:52;0.70;99.90
4651;DHT22;2338;49.602;8.722;2022-12-16T14:16:02;0.60;99.90
4651;DHT22;2338;49.602;8.722;2022-12-16T14:19:15;0.50;99.90
4651;DHT22;2338;49.602;8.722;2022-12-16T14:22:29;0.40;99.90
4651;DHT22;2338;49.602;8.722;2022-12-16T14:25:44;0.40;99.90
4651;DHT22;2338;49.602;8.722;2022-12-16T14:28:48;0.20;99.90
4651;DHT22;2338;49.602;8.722;2022-12-16T14:31:51;0.20;99.90
4651;DHT22;2338;49.602;8.722;2022-12-16T14:35:04;0.40;99.90
4651;DHT22;2338;49.602;8.722;2022-12-16T14:38:25;0.20;99.90
4651;DHT22;2338;49.602;8.722;2022-12-16T14:41:29;0.20;99.90
4651;DHT22;2338;49.602;8.722;2022-12-16T14:44:32;0.30;99.90
4651;DHT22;2338;49.602;8.722;2022-12-16T14:47:39;0.40;99.90
4651;DHT22;2338;49.602;8.722;2022-12-16T14:50:42;0.30;99.90
4651;DHT22;2338;49.602;8.722;2022-12-16T14:53:46;0.10;99.90
4651;DHT22;2338;49.602;8.722;2022-12-16T14:56:50;-0.10;99.90
4651;DHT22;2338;49.602;8.722;2022-12-16T15:00:15;-0.10;99.90
4651;DHT22;2338;49.602;8.722;2022-12-16T15:03:29;-0.20;99.90
4651;DHT22;2338;49.602;8.722;2022-12-16T15:06:37;-0.30;99.90
4651;DHT22;2338;49.602;8.722;2022-12-16T15:09:46;-0.50;99.90
4651;DHT22;2338;49.602;8.722;2022-12-16T15:12:51;-0.60;99.90
4651;DHT22;2338;49.602;8.722;2022-12-16T15:15:54;-0.60;99.90
4651;DHT22;2338;49.602;8.722;2022-12-16T15:18:59;-0.70;99.90
4651;DHT22;2338;49.602;8.722;2022-12-16T15:22:03;-0.80;99.90
4651;DHT22;2338;49.602;8.722;2022-12-16T15:25:18;-0.90;99.90
4651;DHT22;2338;49.602;8.722;2022-12-16T15:28:23;-1.20;99.90
4651;DHT22;2338;49.602;8.722;2022-12-16T15:31:33;-1.20;99.90
4651;DHT22;2338;49.602;8.722;2022-12-16T15:34:45;-1.30;99.90
4651;DHT22;2338;49.602;8.722;2022-12-16T15:37:49;-1.40;99.90
4651;DHT22;2338;49.602;8.722;2022-12-16T15:40:53;-1.50;99.90
4651;DHT22;2338;49.602;8.722;2022-12-16T15:43:56;-1.40;99.90
4651;DHT22;2338;49.602;8.722;2022-12-16T15:47:00;-1.40;99.90
4651;DHT22;2338;49.602;8.722;2022-12-16T15:50:04;-1.50;99.90
4651;DHT22;2338;49.602;8.722;2022-12-16T15:53:16;-1.60;99.90
4651;DHT22;2338;49.602;8.722;2022-12-16T15:56:43;-1.70;99.90
4651;DHT22;2338;49.602;8.722;2022-12-16T15:59:56;-1.70;99.90
4651;DHT22;2338;49.602;8.722;2022-12-16T16:02:59;-1.70;99.90
4651;DHT22;2338;49.602;8.722;2022-12-16T16:06:03;-1.80;99.90
4651;DHT22;2338;49.602;8.722;2022-12-16T16:09:14;-1.80;99.90
4651;DHT22;2338;49.602;8.722;2022-12-16T16:12:20;-1.80;99.90
4651;DHT22;2338;49.602;8.722;2022-12-16T16:15:23;-2.00;99.90
4651;DHT22;2338;49.602;8.722;2022-12-16T16:18:26;-2.10;99.90
4651;DHT22;2338;49.602;8.722;2022-12-16T16:21:29;-2.20;99.90
4651;DHT22;2338;49.602;8.722;2022-12-16T16:24:33;-2.20;99.90
4651;DHT22;2338;49.602;8.722;2022-12-16T16:27:37;-2.20;99.90
4651;DHT22;2338;49.602;8.722;2022-12-16T16:30:40;-2.20;99.90
4651;DHT22;2338;49.602;8.722;2022-12-16T16:33:43;-2.30;99.90
4651;DHT22;2338;49.602;8.722;2022-12-16T16:36:58;-2.20;99.90
4651;DHT22;2338;49.602;8.722;2022-12-16T16:40:17;-2.20;99.90
4651;DHT22;2338;49.602;8.722;2022-12-16T16:43:25;-2.40;99.90
4651;DHT22;2338;49.602;8.722;2022-12-16T16:46:34;-2.50;99.90
4651;DHT22;2338;49.602;8.722;2022-12-16T16:49:40;-2.50;99.90
4651;DHT22;2338;49.602;8.722;2022-12-16T16:52:43;-2.50;99.90
4651;DHT22;2338;49.602;8.722;2022-12-16T16:55:52;-2.60;99.90
4651;DHT22;2338;49.602;8.722;2022-12-16T16:58:53;-2.70;99.90
4651;DHT22;2338;49.602;8.722;2022-12-16T17:01:56;-2.90;99.90
4651;DHT22;2338;49.602;8.722;2022-12-16T17:05:13;-2.90;99.90
4651;DHT22;2338;49.602;8.722;2022-12-16T17:08:17;-2.80;99.90
4651;DHT22;2338;49.602;8.722;2022-12-16T17:11:21;-2.90;99.90
4651;DHT22;2338;49.602;8.722;2022-12-16T17:14:25;-3.00;99.90
4651;DHT22;2338;49.602;8.722;2022-12-16T17:17:28;-3.00;99.90
4651;DHT22;2338;49.602;8.722;2022-12-16T17:20:31;-3.10;99.90
4651;DHT22;2338;49.602;8.722;2022-12-16T17:23:34;-3.00;99.90
4651;DHT22;2338;49.602;8.722;2022-12-16T17:26:39;-3.20;99.90
4651;DHT22;2338;49.602;8.722;2022-12-16T17:29:45;-3.20;99.90
4651;DHT22;2338;49.602;8.722;2022-12-16T17:32:48;-3.20;99.90
4651;DHT22;2338;49.602;8.722;2022-12-16T17:35:51;-3.10;99.90
4651;DHT22;2338;49.602;8.722;2022-12-16T17:38:54;-3.20;99.90
4651;DHT22;2338;49.602;8.722;2022-12-16T17:41:58;-3.10;99.90
4651;DHT22;2338;49.602;8.722;2022-12-16T17:44:58;-3.20;99.90
4651;DHT22;2338;49.602;8.722;2022-12-16T17:48:02;-3.30;99.90
4651;DHT22;2338;49.602;8.722;2022-12-16T17:51:05;-3.20;99.90
4651;DHT22;2338;49.602;8.722;2022-12-16T17:54:08;-3.30;99.90
4651;DHT22;2338;49.602;8.722;2022-12-16T17:57:11;-3.40;99.90
4651;DHT22;2338;49.602;8.722;2022-12-16T18:00:16;-3.50;99.90
4651;DHT22;2338;49.602;8.722;2022-12-16T18:03:30;-3.70;99.90
4651;DHT22;2338;49.602;8.722;2022-12-16T18:06:34;-3.80;99.90
4651;DHT22;2338;49.602;8.722;2022-12-16T18:09:37;-3.80;99.90
4651;DHT22;2338;49.602;8.722;2022-12-16T18:12:41;-3.70;99.90
4651;DHT22;2338;49.602;8.722;2022-12-16T18:15:51;-3.60;99.90
4651;DHT22;2338;49.602;8.722;2022-12-16T18:18:55;-3.50;99.90
4651;DHT22;2338;49.602;8.722;2022-12-16T18:21:58;-3.40;99.90
4651;DHT22;2338;49.602;8.722;2022-12-16T18:25:02;-3.40;99.90
4651;DHT22;2338;49.602;8.722;2022-12-16T18:28:04;-3.50;99.90
4651;DHT22;2338;49.602;8.722;2022-12-16T18:31:09;-3.70;99.90
4651;DHT22;2338;49.602;8.722;2022-12-16T18:34:12;-3.80;99.90
4651;DHT22;2338;49.602;8.722;2022-12-16T18:37:15;-4.10;99.90
4651;DHT22;2338;49.602;8.722;2022-12-16T18:40:19;-4.10;99.90
4651;DHT22;2338;49.602;8.722;2022-12-16T18:43:22;-4.20;99.90
4651;DHT22;2338;49.602;8.722;2022-12-16T18:46:26;-4.00;99.90
4651;DHT22;2338;49.602;8.722;2022-12-16T18:49:30;-3.90;99.90
4651;DHT22;2338;49.602;8.722;2022-12-16T18:52:33;-3.90;99.90
4651;DHT22;2338;49.602;8.722;2022-12-16T18:55:36;-4.10;99.90
4651;DHT22;2338;49.602;8.722;2022-12-16T18:58:39;-4.00;99.90
4651;DHT22;2338;49.602;8.722;2022-12-16T19:01:44;-4.10;99.90
4651;DHT22;2338;49.602;8.722;2022-12-16T19:04:47;-4.20;99.90
4651;DHT22;2338;49.602;8.722;2022-12-16T19:07:50;-4.30;99.90
4651;DHT22;2338;49.602;8.722;2022-12-16T19:10:55;-4.30;99.90
4651;DHT22;2338;49.602;8.722;2022-12-16T19:13:59;-4.30;99.90
4651;DHT22;2338;49.602;8.722;2022-12-16T19:17:04;-4.20;99.90
4651;DHT22;2338;49.602;8.722;2022-12-16T19:20:08;-4.30;99.90
4651;DHT22;2338;49.602;8.722;2022-12-16T19:23:12;-4.30;99.90
4651;DHT22;2338;49.602;8.722;2022-12-16T19:26:12;-4.20;99.90
4651;DHT22;2338;49.602;8.722;2022-12-16T19:29:15;-4.20;99.90
4651;DHT22;2338;49.602;8.722;2022-12-16T19:32:20;-4.20;99.90
4651;DHT22;2338;49.602;8.722;2022-12-16T19:35:23;-4.20;99.90
4651;DHT22;2338;49.602;8.722;2022-12-16T19:38:26;-4.30;99.90
4651;DHT22;2338;49.602;8.722;2022-12-16T19:41:30;-4.30;99.90
4651;DHT22;2338;49.602;8.722;2022-12-16T19:44:33;-4.40;99.90
4651;DHT22;2338;49.602;8.722;2022-12-16T19:47:38;-4.50;99.90
4651;DHT22;2338;49.602;8.722;2022-12-16T19:50:41;-4.60;99.90
4651;DHT22;2338;49.602;8.722;2022-12-16T19:53:44;-4.50;99.90
4651;DHT22;2338;49.602;8.722;2022-12-16T19:56:48;-4.50;99.90
4651;DHT22;2338;49.602;8.722;2022-12-16T19:59:51;-4.40;99.90